Langleyville, Illinois
Current Conditions -  °F | °C
As of 7:35 AM on Saturday 25 Oct 2014 (Local Time) from KTAZ Reporting Station
Overcast Overcast  
Wind Chill: 14°   Ceiling: 1100
Heat Index: 14°   Visibility: 7mi
Dew Point: 13°   Wind: 0mph
Humidity: 94%   Direction: NA
Pressure: 30.01"   Gusts: NA
Location:  39.5521°N, 89.3216°W
Report Text: KTAZ 251235Z AUTO 00000KT 7SM OVC011 14/13 A3001 RMK AO2
Loading
Personal Weather Stations






























Interactive Weather Map
Tropical Storm Tracking
New forecast layout! Learn more

10-Day Weather Forecast

Advertisements
Track Severe Weather on mobile